Terminal Aerodrome Forecast
Issued by NWS

Home | Current Version | Previous Version | Text Only | Print | Product List | Glossary On
Versions: 1 2 3 4 5 6 7 8 9 10 11 12 13 14 15
000
FTUS43 KGRB 241100
TAFMTW
TAF
KMTW 241126Z 2412/2512 11004KT P6SM SCT100 BKN250
      TEMPO 2412/2413 1/2SM FZFG VV003
     FM241800 12007KT P6SM SCT090 BKN150
     FM242300 09008KT P6SM OVC070
     FM250600 05010KT P6SM OVC060=

USA.gov is the U.S. government's official web portal to all federal, state and local government web resources and services.